Time;durP1;ratioP1;P1;durP2;ratioP2;P2;SDS_P1;SDS_P2;PMS_P1;PMS_P2;Temp;Humidity;BMP_temperature;BMP_pressure;BME280_temperature;BME280_humidity;BME280_pressure;Samples;Min_cycle;Max_cycle;Signal;HPM_P1;HPM_P2
2022/11/19 00:01:55;;;;;;;;;15.75;12.75;;;;;;;;5042847;28;51054;-43
2022/11/19 00:04:39;;;;;;;;;12.75;11.00;;;;;;;;5043209;28;51156;-45
2022/11/19 00:07:23;;;;;;;;;15.75;12.25;;;;;;;;5042500;28;51093;-43
2022/11/19 00:10:08;;;;;;;;;12.75;12.25;;;;;;;;5042693;28;51188;-44
2022/11/19 00:12:55;;;;;;;;;14.00;13.75;;;;;;;;5042893;28;51374;-43
2022/11/19 00:15:40;;;;;;;;;16.00;11.25;;;;;;;;5042458;28;51114;-43
2022/11/19 00:18:24;;;;;;;;;13.50;13.50;;;;;;;;5042566;28;51046;-45
2022/11/19 00:21:09;;;;;;;;;16.00;12.00;;;;;;;;5042747;28;51030;-45
2022/11/19 00:23:53;;;;;;;;;16.00;13.00;;;;;;;;5042383;28;51490;-45
2022/11/19 00:26:38;;;;;;;;;20.75;12.75;;;;;;;;5042082;28;51140;-45
2022/11/19 00:29:22;;;;;;;;;18.75;15.50;;;;;;;;5042668;28;51017;-44
2022/11/19 00:32:07;;;;;;;;;13.00;12.00;;;;;;;;5042372;28;51184;-45
2022/11/19 00:34:51;;;;;;;;;19.75;13.50;;;;;;;;5042015;28;51164;-45
2022/11/19 00:37:36;;;;;;;;;19.00;15.00;;;;;;;;5042027;28;51461;-43
2022/11/19 00:40:20;;;;;;;;;13.50;11.50;;;;;;;;5042077;28;51029;-44
2022/11/19 00:46:07;;;;;;;;;14.75;11.00;;;;;;;;5041930;28;51129;-42
2022/11/19 00:48:53;;;;;;;;;15.25;13.75;;;;;;;;5041812;28;51078;-44
2022/11/19 00:51:37;;;;;;;;;14.50;11.75;;;;;;;;5041901;28;50996;-43
2022/11/19 00:54:21;;;;;;;;;21.25;16.25;;;;;;;;5042123;28;51058;-44
2022/11/19 00:57:06;;;;;;;;;17.50;13.25;;;;;;;;5040747;28;51069;-45
2022/11/19 00:59:50;;;;;;;;;15.25;12.75;;;;;;;;5041924;28;51148;-43
2022/11/19 01:02:35;;;;;;;;;13.25;13.00;;;;;;;;5041793;28;51445;-43
2022/11/19 01:05:19;;;;;;;;;12.00;10.50;;;;;;;;5041706;28;51197;-43
2022/11/19 01:08:03;;;;;;;;;10.50;10.50;;;;;;;;5041743;28;51212;-44
2022/11/19 01:10:48;;;;;;;;;16.75;12.50;;;;;;;;5041764;28;51182;-43
2022/11/19 01:13:33;;;;;;;;;16.25;13.75;;;;;;;;5041764;28;51134;-46
2022/11/19 01:16:22;;;;;;;;;22.00;13.00;;;;;;;;5040998;28;51203;-43
2022/11/19 01:19:09;;;;;;;;;18.00;12.25;;;;;;;;5041697;28;51065;-45
2022/11/19 01:21:54;;;;;;;;;18.00;13.25;;;;;;;;5035282;28;51542;-46
2022/11/19 01:24:38;;;;;;;;;10.25;10.25;;;;;;;;5041453;28;51079;-45
2022/11/19 01:27:22;;;;;;;;;17.25;13.75;;;;;;;;5041089;28;51424;-44
2022/11/19 01:30:07;;;;;;;;;15.75;11.25;;;;;;;;5041230;28;51204;-44
2022/11/19 01:32:51;;;;;;;;;16.25;14.50;;;;;;;;5041484;28;51042;-43
2022/11/19 01:35:36;;;;;;;;;13.75;11.75;;;;;;;;5041011;28;51066;-44
2022/11/19 01:38:20;;;;;;;;;12.00;11.50;;;;;;;;5041285;28;51138;-45
2022/11/19 01:41:05;;;;;;;;;16.25;12.75;;;;;;;;5041074;28;51085;-43
2022/11/19 01:43:51;;;;;;;;;17.25;15.25;;;;;;;;5041275;28;51263;-42
2022/11/19 01:46:36;;;;;;;;;14.75;12.75;;;;;;;;5040423;28;51127;-43
2022/11/19 01:49:21;;;;;;;;;12.75;11.50;;;;;;;;5040846;28;51201;-47
2022/11/19 01:52:05;;;;;;;;;14.75;12.00;;;;;;;;5041072;28;51327;-44
2022/11/19 01:54:53;;;;;;;;;15.00;11.75;;;;;;;;5040238;28;51093;-45
2022/11/19 01:57:38;;;;;;;;;12.00;10.00;;;;;;;;5040964;28;51062;-43
2022/11/19 02:00:22;;;;;;;;;15.25;11.00;;;;;;;;5040988;28;51671;-44
2022/11/19 02:03:07;;;;;;;;;18.25;12.25;;;;;;;;5040553;28;51511;-43
2022/11/19 02:05:51;;;;;;;;;13.50;11.75;;;;;;;;5040517;28;51093;-44
2022/11/19 02:08:40;;;;;;;;;7.50;4.75;;;;;;;;5040761;28;51147;-44
2022/11/19 02:11:34;;;;;;;;;13.75;12.00;;;;;;;;5040326;28;51500;-42
2022/11/19 02:14:19;;;;;;;;;12.75;11.00;;;;;;;;5040295;28;51082;-43
2022/11/19 02:17:22;;;;;;;;;16.50;10.50;;;;;;;;5040270;28;51473;-42
2022/11/19 02:20:19;;;;;;;;;10.00;9.00;;;;;;;;5040588;28;51171;-43
2022/11/19 02:23:03;;;;;;;;;14.00;11.75;;;;;;;;5039847;28;51153;-42
2022/11/19 02:26:00;;;;;;;;;12.25;11.75;;;;;;;;5040320;28;51036;-44
2022/11/19 02:28:51;;;;;;;;;12.25;12.25;;;;;;;;5040299;28;51373;-42
2022/11/19 02:31:41;;;;;;;;;13.50;9.50;;;;;;;;5039643;28;51164;-42
2022/11/19 02:34:52;;;;;;;;;15.75;11.25;;;;;;;;5039973;28;51023;-42
2022/11/19 02:37:36;;;;;;;;;14.75;12.75;;;;;;;;5039621;28;51497;-42
2022/11/19 02:40:29;;;;;;;;;17.25;13.50;;;;;;;;5039990;28;51318;-44
2022/11/19 02:43:21;;;;;;;;;14.75;11.00;;;;;;;;5035356;28;51461;-43
2022/11/19 02:46:12;;;;;;;;;15.00;12.00;;;;;;;;5039919;28;51051;-42
2022/11/19 02:48:57;;;;;;;;;12.25;12.00;;;;;;;;5039670;28;51156;-42
2022/11/19 02:51:41;;;;;;;;;16.75;14.25;;;;;;;;5039596;28;51176;-44
2022/11/19 02:54:26;;;;;;;;;16.00;11.00;;;;;;;;5039988;28;51149;-44
2022/11/19 02:57:12;;;;;;;;;15.00;12.50;;;;;;;;5039480;28;51094;-46
2022/11/19 03:06:12;;;;;;;;;18.00;12.25;;;;;;;;5039358;28;51172;-44
2022/11/19 03:08:56;;;;;;;;;14.00;11.00;;;;;;;;5039527;28;52989;-42
2022/11/19 03:11:43;;;;;;;;;14.25;11.75;;;;;;;;5039547;28;51118;-42
2022/11/19 03:17:35;;;;;;;;;15.25;12.00;;;;;;;;5039459;28;51098;-42
2022/11/19 03:20:26;;;;;;;;;16.00;11.00;;;;;;;;5038965;28;51413;-42
2022/11/19 03:23:17;;;;;;;;;15.25;11.25;;;;;;;;5038758;28;51132;-44
2022/11/19 03:26:12;;;;;;;;;18.00;12.75;;;;;;;;5039334;28;51109;-44
2022/11/19 03:28:59;;;;;;;;;13.25;11.75;;;;;;;;5039213;28;51042;-44
2022/11/19 03:31:48;;;;;;;;;14.25;12.50;;;;;;;;5039252;28;51098;-42
2022/11/19 03:34:33;;;;;;;;;14.75;13.75;;;;;;;;5039142;28;51395;-44
2022/11/19 03:37:20;;;;;;;;;15.25;13.00;;;;;;;;5039090;28;51050;-44
2022/11/19 03:40:06;;;;;;;;;12.25;12.00;;;;;;;;5039020;28;51475;-44
2022/11/19 03:42:53;;;;;;;;;15.25;13.00;;;;;;;;5039311;28;51014;-41
2022/11/19 03:45:43;;;;;;;;;15.25;13.25;;;;;;;;5037980;28;51654;-44
2022/11/19 03:48:29;;;;;;;;;17.75;12.50;;;;;;;;5038818;28;51069;-44
2022/11/19 03:51:21;;;;;;;;;20.75;16.75;;;;;;;;5039403;28;51069;-44
2022/11/19 03:54:05;;;;;;;;;15.75;12.50;;;;;;;;5038790;28;51460;-43
2022/11/19 03:56:50;;;;;;;;;14.25;12.50;;;;;;;;5038691;28;51144;-42
2022/11/19 03:59:34;;;;;;;;;14.00;10.00;;;;;;;;5038957;28;51464;-42
2022/11/19 04:02:19;;;;;;;;;15.25;13.50;;;;;;;;5039210;28;51010;-42
2022/11/19 04:05:03;;;;;;;;;15.00;12.00;;;;;;;;5038888;28;51545;-42
2022/11/19 04:07:48;;;;;;;;;14.00;11.50;;;;;;;;5038667;28;51115;-44
2022/11/19 04:10:32;;;;;;;;;15.50;13.00;;;;;;;;5039055;28;51478;-44
2022/11/19 04:13:16;;;;;;;;;13.75;12.50;;;;;;;;5038686;28;51113;-44
2022/11/19 04:16:01;;;;;;;;;14.75;14.00;;;;;;;;5038899;28;51070;-45
2022/11/19 04:18:45;;;;;;;;;14.50;14.00;;;;;;;;5038745;28;51085;-42
2022/11/19 04:21:30;;;;;;;;;15.25;14.00;;;;;;;;5038934;28;51119;-44
2022/11/19 04:24:14;;;;;;;;;16.00;13.00;;;;;;;;5038680;28;51153;-42
2022/11/19 04:26:59;;;;;;;;;14.00;12.25;;;;;;;;5038629;28;51169;-43
2022/11/19 04:29:44;;;;;;;;;14.50;14.25;;;;;;;;5038680;28;51490;-42
2022/11/19 04:32:28;;;;;;;;;15.00;12.75;;;;;;;;5040956;28;51078;-42
2022/11/19 04:35:13;;;;;;;;;16.75;14.75;;;;;;;;5041983;28;51225;-43
2022/11/19 04:37:57;;;;;;;;;16.75;14.00;;;;;;;;5042299;28;51166;-42
2022/11/19 04:40:41;;;;;;;;;23.00;14.00;;;;;;;;5042576;28;51030;-42
2022/11/19 04:43:26;;;;;;;;;17.75;15.00;;;;;;;;5041815;28;51133;-43
2022/11/19 04:46:10;;;;;;;;;16.00;15.00;;;;;;;;5042058;28;51084;-42
2022/11/19 04:48:55;;;;;;;;;20.25;14.75;;;;;;;;5041995;28;51122;-43
2022/11/19 04:51:39;;;;;;;;;18.25;15.00;;;;;;;;5042498;28;51090;-42
2022/11/19 04:54:24;;;;;;;;;15.25;14.00;;;;;;;;5041566;28;51393;-45
2022/11/19 04:57:08;;;;;;;;;25.75;20.25;;;;;;;;5041867;28;51039;-42
2022/11/19 04:59:52;;;;;;;;;25.00;25.00;;;;;;;;5041979;28;51212;-42
2022/11/19 05:02:37;;;;;;;;;30.25;28.75;;;;;;;;5041481;28;51073;-42
2022/11/19 05:05:21;;;;;;;;;32.75;30.00;;;;;;;;5042111;28;51085;-42
2022/11/19 05:08:06;;;;;;;;;39.25;30.50;;;;;;;;5041469;28;51512;-42
2022/11/19 05:10:50;;;;;;;;;42.75;33.75;;;;;;;;5041386;28;51620;-42
2022/11/19 05:13:34;;;;;;;;;34.50;32.00;;;;;;;;5041313;28;51157;-46
2022/11/19 05:16:19;;;;;;;;;36.75;32.75;;;;;;;;5041793;28;51141;-42
2022/11/19 05:19:03;;;;;;;;;41.50;36.25;;;;;;;;5040249;28;51193;-42
2022/11/19 05:21:48;;;;;;;;;43.00;35.00;;;;;;;;5041140;28;51166;-42
2022/11/19 05:24:32;;;;;;;;;42.50;33.75;;;;;;;;5041507;28;51575;-43
2022/11/19 05:27:16;;;;;;;;;41.75;34.00;;;;;;;;5040970;28;51164;-43
2022/11/19 05:30:01;;;;;;;;;42.75;35.50;;;;;;;;5041552;28;51266;-44
2022/11/19 05:32:46;;;;;;;;;45.00;35.75;;;;;;;;5040997;28;51359;-41
2022/11/19 05:35:30;;;;;;;;;57.50;44.00;;;;;;;;5041083;28;51043;-42
2022/11/19 05:38:15;;;;;;;;;56.00;42.75;;;;;;;;5040714;28;50957;-43
2022/11/19 05:40:59;;;;;;;;;55.50;43.00;;;;;;;;5041129;28;51074;-43
2022/11/19 05:43:43;;;;;;;;;54.25;41.25;;;;;;;;5040529;28;51102;-42
2022/11/19 05:46:28;;;;;;;;;51.25;39.75;;;;;;;;5040955;28;51148;-42
2022/11/19 05:49:12;;;;;;;;;52.25;41.25;;;;;;;;5039693;28;51121;-44
2022/11/19 05:51:57;;;;;;;;;49.00;38.75;;;;;;;;5040852;28;51148;-42
2022/11/19 05:54:41;;;;;;;;;55.00;42.00;;;;;;;;5040876;28;51161;-43
2022/11/19 05:57:26;;;;;;;;;49.00;40.00;;;;;;;;5040305;28;51338;-42
2022/11/19 06:00:11;;;;;;;;;47.50;40.00;;;;;;;;5040769;28;51019;-42
2022/11/19 06:02:56;;;;;;;;;38.00;32.75;;;;;;;;5040531;28;51153;-41
2022/11/19 06:05:40;;;;;;;;;33.00;28.75;;;;;;;;5040671;28;51130;-42
2022/11/19 06:08:24;;;;;;;;;47.75;39.00;;;;;;;;5040213;28;51198;-46
2022/11/19 06:11:46;;;;;;;;;57.75;43.00;;;;;;;;5040155;28;51164;-42
2022/11/19 06:14:22;;;;;;;;;60.50;45.50;;;;;;;;5040502;28;51064;-43
2022/11/19 06:17:07;;;;;;;;;50.25;40.25;;;;;;;;5040305;28;51220;-43
2022/11/19 06:19:51;;;;;;;;;45.00;35.00;;;;;;;;5040507;28;51173;-44
2022/11/19 06:22:37;;;;;;;;;44.00;36.00;;;;;;;;5039704;28;51346;-42
2022/11/19 06:25:20;;;;;;;;;38.00;30.75;;;;;;;;5040245;28;51173;-45
2022/11/19 06:28:05;;;;;;;;;36.50;32.00;;;;;;;;5040084;28;51282;-43
2022/11/19 06:30:49;;;;;;;;;40.50;33.50;;;;;;;;5040140;28;51169;-42
2022/11/19 06:33:34;;;;;;;;;42.00;35.00;;;;;;;;5039724;28;51433;-43
2022/11/19 06:36:18;;;;;;;;;37.25;32.25;;;;;;;;5039979;28;51188;-46
2022/11/19 06:39:03;;;;;;;;;45.75;35.50;;;;;;;;5039849;28;51057;-43
2022/11/19 06:41:47;;;;;;;;;43.75;36.00;;;;;;;;5039828;28;51407;-42
2022/11/19 06:44:31;;;;;;;;;41.00;34.50;;;;;;;;5040002;28;51098;-45
2022/11/19 06:47:16;;;;;;;;;45.00;36.50;;;;;;;;5039478;28;51287;-44
2022/11/19 06:50:00;;;;;;;;;44.75;36.25;;;;;;;;5039661;28;51146;-43
2022/11/19 06:52:45;;;;;;;;;45.00;37.25;;;;;;;;5039712;28;51115;-42
2022/11/19 06:55:29;;;;;;;;;46.75;38.00;;;;;;;;5039130;28;51105;-42
2022/11/19 06:58:14;;;;;;;;;48.25;40.00;;;;;;;;5039171;28;51091;-42
2022/11/19 07:00:58;;;;;;;;;51.25;41.75;;;;;;;;5039772;28;51136;-42
2022/11/19 07:03:42;;;;;;;;;53.00;41.50;;;;;;;;5039664;28;51049;-44
2022/11/19 07:06:27;;;;;;;;;48.50;39.00;;;;;;;;5039062;28;51056;-45
2022/11/19 07:09:12;;;;;;;;;49.75;37.75;;;;;;;;5039861;28;51002;-42
2022/11/19 07:11:56;;;;;;;;;47.50;40.00;;;;;;;;5039260;28;51028;-43
2022/11/19 07:14:41;;;;;;;;;51.25;41.50;;;;;;;;5039394;28;51096;-42
2022/11/19 07:17:25;;;;;;;;;51.00;40.00;;;;;;;;5039137;28;51074;-45
2022/11/19 07:20:10;;;;;;;;;53.50;41.25;;;;;;;;5039865;28;51089;-43
2022/11/19 07:22:54;;;;;;;;;50.75;39.50;;;;;;;;5038927;28;51446;-43
2022/11/19 07:25:41;;;;;;;;;53.25;43.25;;;;;;;;5039112;28;51248;-43
2022/11/19 07:28:25;;;;;;;;;58.00;45.00;;;;;;;;5039342;28;51631;-44
2022/11/19 07:31:09;;;;;;;;;53.75;43.25;;;;;;;;5039374;28;51758;-45
2022/11/19 07:33:54;;;;;;;;;56.50;43.50;;;;;;;;5039108;28;51015;-43
2022/11/19 07:36:38;;;;;;;;;47.50;40.00;;;;;;;;5038943;28;51526;-43
2022/11/19 07:39:23;;;;;;;;;46.50;34.75;;;;;;;;5039373;28;51669;-43
2022/11/19 07:45:10;;;;;;;;;49.00;41.00;;;;;;;;5039414;28;51010;-42
2022/11/19 07:47:54;;;;;;;;;53.00;42.00;;;;;;;;5038652;28;51059;-43
2022/11/19 07:50:40;;;;;;;;;55.50;41.25;;;;;;;;5039178;28;50974;-43
2022/11/19 07:53:24;;;;;;;;;54.50;44.00;;;;;;;;5038998;28;51237;-44
2022/11/19 07:56:09;;;;;;;;;55.25;43.00;;;;;;;;5038519;28;51192;-46
2022/11/19 07:58:53;;;;;;;;;53.00;43.00;;;;;;;;5039152;28;51097;-44
2022/11/19 08:01:37;;;;;;;;;53.00;42.25;;;;;;;;5038626;28;51160;-42
2022/11/19 08:04:22;;;;;;;;;49.75;41.00;;;;;;;;5038583;28;51165;-43
2022/11/19 08:07:06;;;;;;;;;52.00;42.00;;;;;;;;5038238;28;51047;-43
2022/11/19 08:09:51;;;;;;;;;49.50;40.50;;;;;;;;5041321;28;51122;-44
2022/11/19 08:12:35;;;;;;;;;47.75;37.75;;;;;;;;5041610;28;51544;-43
2022/11/19 08:15:20;;;;;;;;;43.50;36.75;;;;;;;;5041322;28;51057;-45
2022/11/19 08:18:14;;;;;;;;;47.50;38.00;;;;;;;;5042657;28;51093;-46
2022/11/19 08:21:10;;;;;;;;;44.75;36.75;;;;;;;;5039592;28;51254;-43
2022/11/19 08:23:55;;;;;;;;;44.00;38.00;;;;;;;;5041956;28;51351;-44
2022/11/19 08:26:39;;;;;;;;;43.00;35.50;;;;;;;;5041855;28;51059;-45
2022/11/19 08:29:24;;;;;;;;;40.50;34.00;;;;;;;;5038926;28;51532;-43
2022/11/19 08:32:08;;;;;;;;;45.00;36.75;;;;;;;;5036008;28;51489;-43
2022/11/19 08:34:53;;;;;;;;;43.00;34.75;;;;;;;;5042293;28;51048;-44
2022/11/19 08:37:37;;;;;;;;;45.50;35.75;;;;;;;;5041897;28;51452;-43
2022/11/19 08:40:22;;;;;;;;;46.75;36.25;;;;;;;;5041222;28;51026;-44
2022/11/19 08:43:06;;;;;;;;;46.00;36.25;;;;;;;;5042593;28;51324;-46
2022/11/19 08:45:55;;;;;;;;;43.25;34.50;;;;;;;;5040804;28;51160;-44
2022/11/19 08:48:40;;;;;;;;;42.00;33.50;;;;;;;;5038557;28;51148;-44
2022/11/19 08:51:25;;;;;;;;;41.50;34.25;;;;;;;;5042127;28;51592;-45
2022/11/19 08:54:09;;;;;;;;;38.50;32.50;;;;;;;;5041579;28;51060;-45
2022/11/19 08:56:54;;;;;;;;;33.50;26.75;;;;;;;;5041837;28;51167;-44
2022/11/19 08:59:38;;;;;;;;;30.25;23.75;;;;;;;;5042192;28;51082;-44
2022/11/19 09:02:22;;;;;;;;;26.75;24.75;;;;;;;;5041738;28;51439;-44
2022/11/19 09:05:07;;;;;;;;;30.50;27.00;;;;;;;;5041692;28;51249;-46
2022/11/19 09:07:53;;;;;;;;;26.25;23.50;;;;;;;;5041773;28;51281;-44
2022/11/19 09:10:38;;;;;;;;;22.50;20.50;;;;;;;;5041494;28;51157;-47
2022/11/19 09:13:23;;;;;;;;;20.75;18.50;;;;;;;;5041444;28;51035;-45
2022/11/19 09:16:08;;;;;;;;;22.00;18.25;;;;;;;;5041384;28;51130;-45
2022/11/19 09:18:52;;;;;;;;;19.75;18.25;;;;;;;;5039468;28;51385;-44
2022/11/19 09:21:37;;;;;;;;;20.50;18.50;;;;;;;;5041338;28;51170;-46
2022/11/19 09:24:22;;;;;;;;;25.50;20.25;;;;;;;;5041786;28;51188;-43
2022/11/19 09:27:06;;;;;;;;;22.00;21.00;;;;;;;;5041285;28;51502;-45
2022/11/19 09:29:51;;;;;;;;;23.75;20.25;;;;;;;;5041082;28;51179;-45
2022/11/19 09:32:35;;;;;;;;;16.25;16.25;;;;;;;;5038975;28;51491;-44
2022/11/19 09:35:19;;;;;;;;;26.75;20.50;;;;;;;;5036973;28;51266;-45
2022/11/19 09:38:04;;;;;;;;;15.75;15.75;;;;;;;;5041151;28;51324;-45
2022/11/19 09:40:51;;;;;;;;;23.75;21.00;;;;;;;;5041265;28;51161;-43
2022/11/19 09:44:07;;;;;;;;;21.75;19.25;;;;;;;;5041269;28;51156;-43
2022/11/19 09:46:54;;;;;;;;;19.50;17.00;;;;;;;;5023023;28;51162;-44
2022/11/19 09:49:44;;;;;;;;;17.00;16.00;;;;;;;;5041174;28;51177;-46
2022/11/19 09:52:32;;;;;;;;;21.00;19.75;;;;;;;;5040557;28;51070;-45
2022/11/19 09:55:25;;;;;;;;;23.25;19.25;;;;;;;;5040862;28;51147;-43
2022/11/19 09:58:13;;;;;;;;;20.75;18.50;;;;;;;;5040918;28;51451;-44
2022/11/19 10:00:58;;;;;;;;;17.00;14.75;;;;;;;;5040635;28;51102;-45
2022/11/19 10:03:47;;;;;;;;;17.00;14.50;;;;;;;;5039900;28;50973;-45
2022/11/19 10:06:47;;;;;;;;;18.00;15.00;;;;;;;;5040244;28;51921;-43
2022/11/19 10:09:43;;;;;;;;;19.75;14.75;;;;;;;;5039275;28;51454;-44
2022/11/19 10:12:31;;;;;;;;;25.00;21.25;;;;;;;;5040224;28;51128;-44
2022/11/19 10:15:21;;;;;;;;;12.75;12.50;;;;;;;;5040589;28;50983;-45
2022/11/19 10:18:09;;;;;;;;;20.75;15.50;;;;;;;;5040239;28;51008;-43
2022/11/19 10:21:03;;;;;;;;;16.50;13.75;;;;;;;;5039986;28;51148;-44
2022/11/19 10:23:53;;;;;;;;;17.00;17.00;;;;;;;;5040132;28;51983;-45
2022/11/19 10:26:39;;;;;;;;;20.75;19.25;;;;;;;;5039915;28;51167;-47
2022/11/19 10:29:27;;;;;;;;;22.00;20.25;;;;;;;;5039338;28;51058;-44
2022/11/19 10:32:31;;;;;;;;;12.75;12.50;;;;;;;;5039751;28;51097;-46
2022/11/19 10:35:17;;;;;;;;;15.50;13.25;;;;;;;;5040012;28;51087;-46
2022/11/19 10:38:03;;;;;;;;;20.25;16.75;;;;;;;;5039639;28;51410;-44
2022/11/19 10:40:54;;;;;;;;;19.00;14.50;;;;;;;;5040401;28;51078;-44
2022/11/19 10:43:56;;;;;;;;;17.25;13.00;;;;;;;;5039786;28;51134;-44
2022/11/19 10:46:41;;;;;;;;;16.50;14.25;;;;;;;;5039999;28;51154;-43
2022/11/19 10:49:25;;;;;;;;;14.75;14.50;;;;;;;;5039643;28;51475;-44
2022/11/19 10:52:16;;;;;;;;;13.00;13.00;;;;;;;;5039597;28;51199;-44
2022/11/19 10:55:12;;;;;;;;;16.75;14.00;;;;;;;;5039959;28;51118;-42
2022/11/19 10:58:06;;;;;;;;;14.75;13.00;;;;;;;;5039566;28;51221;-45
2022/11/19 11:00:52;;;;;;;;;15.00;14.00;;;;;;;;5039415;28;51511;-46
2022/11/19 11:03:47;;;;;;;;;19.75;15.50;;;;;;;;5039125;28;51097;-43
2022/11/19 11:06:55;;;;;;;;;16.50;13.75;;;;;;;;5039641;28;51136;-43
2022/11/19 11:09:40;;;;;;;;;13.25;13.25;;;;;;;;5030599;28;51117;-44
2022/11/19 11:15:29;;;;;;;;;15.00;13.25;;;;;;;;5031930;28;51098;-42
2022/11/19 11:18:14;;;;;;;;;12.00;10.50;;;;;;;;5034579;28;51309;-43
2022/11/19 11:20:59;;;;;;;;;16.00;14.25;;;;;;;;5038224;28;50999;-43
2022/11/19 11:23:52;;;;;;;;;18.00;12.75;;;;;;;;5037383;28;51455;-43
2022/11/19 11:26:36;;;;;;;;;15.25;15.25;;;;;;;;5039044;28;51526;-45
2022/11/19 11:29:25;;;;;;;;;13.75;12.75;;;;;;;;5039275;28;51036;-45
2022/11/19 11:32:36;;;;;;;;;14.00;12.25;;;;;;;;5038517;28;51488;-43
2022/11/19 11:35:35;;;;;;;;;12.50;12.50;;;;;;;;5038820;28;51059;-45
2022/11/19 11:38:21;;;;;;;;;15.75;14.50;;;;;;;;5038322;28;51255;-44
2022/11/19 11:41:07;;;;;;;;;16.50;14.00;;;;;;;;5038912;28;51165;-45
2022/11/19 11:44:02;;;;;;;;;16.50;14.00;;;;;;;;5042860;28;51160;-44
2022/11/19 11:46:50;;;;;;;;;21.00;17.75;;;;;;;;5043110;28;51122;-43
2022/11/19 11:49:36;;;;;;;;;18.50;14.00;;;;;;;;5042912;28;51079;-44
2022/11/19 11:52:24;;;;;;;;;19.00;14.75;;;;;;;;5042281;28;51482;-42
2022/11/19 11:55:24;;;;;;;;;17.25;14.25;;;;;;;;5042896;28;51175;-43
2022/11/19 11:58:25;;;;;;;;;23.25;17.50;;;;;;;;5043275;28;51141;-42
2022/11/19 12:01:14;;;;;;;;;18.00;15.00;;;;;;;;5036861;28;51484;-44
2022/11/19 12:03:58;;;;;;;;;17.50;14.50;;;;;;;;5042756;28;51072;-44
2022/11/19 12:06:57;;;;;;;;;18.50;17.25;;;;;;;;5042806;28;51390;-44
2022/11/19 12:09:41;;;;;;;;;15.75;13.75;;;;;;;;5040409;28;51180;-43
2022/11/19 12:12:25;;;;;;;;;15.00;13.50;;;;;;;;5040363;28;51022;-44
2022/11/19 12:15:31;;;;;;;;;20.25;15.00;;;;;;;;5041594;28;51084;-45
2022/11/19 12:18:27;;;;;;;;;21.75;16.00;;;;;;;;5042713;28;51541;-43
2022/11/19 12:21:47;;;;;;;;;18.25;14.50;;;;;;;;5042541;28;51133;-42
2022/11/19 12:24:49;;;;;;;;;17.25;15.25;;;;;;;;4986610;28;51064;-43
2022/11/19 12:27:49;;;;;;;;;21.00;16.50;;;;;;;;5042312;28;51123;-43
2022/11/19 12:30:40;;;;;;;;;12.50;11.50;;;;;;;;5042430;28;51114;-44
2022/11/19 12:33:30;;;;;;;;;16.25;16.25;;;;;;;;5042700;28;51474;-43
2022/11/19 12:36:15;;;;;;;;;15.00;14.50;;;;;;;;5041593;28;51216;-45
2022/11/19 12:38:59;;;;;;;;;23.25;19.25;;;;;;;;5041549;28;51093;-45
2022/11/19 12:42:06;;;;;;;;;18.75;15.50;;;;;;;;5041940;28;51115;-42
2022/11/19 12:45:00;;;;;;;;;19.50;17.25;;;;;;;;5034199;28;51206;-44
2022/11/19 12:47:50;;;;;;;;;20.25;17.75;;;;;;;;5060260;27;51096;-44
2022/11/19 12:50:45;;;;;;;;;19.50;16.50;;;;;;;;5039623;28;51236;-42
2022/11/19 12:53:37;;;;;;;;;20.25;17.75;;;;;;;;5040022;28;51535;-43
2022/11/19 12:56:27;;;;;;;;;18.75;17.25;;;;;;;;5040312;28;51093;-44
2022/11/19 12:59:30;;;;;;;;;18.00;16.50;;;;;;;;5042114;28;51375;-42
2022/11/19 13:02:21;;;;;;;;;18.50;16.75;;;;;;;;5041624;28;51161;-42
2022/11/19 13:05:31;;;;;;;;;15.75;14.75;;;;;;;;5041923;28;51145;-44
2022/11/19 13:08:19;;;;;;;;;18.75;17.25;;;;;;;;5030857;28;51269;-43
2022/11/19 13:11:13;;;;;;;;;19.25;18.25;;;;;;;;5041973;28;51058;-43
2022/11/19 13:14:00;;;;;;;;;19.50;18.00;;;;;;;;5041585;28;51128;-42
2022/11/19 13:16:44;;;;;;;;;16.00;14.50;;;;;;;;5041540;28;51169;-43
2022/11/19 13:19:33;;;;;;;;;22.00;16.25;;;;;;;;5041583;28;51129;-45
2022/11/19 13:22:23;;;;;;;;;20.50;18.50;;;;;;;;5041665;28;51112;-43
2022/11/19 13:25:10;;;;;;;;;18.75;16.25;;;;;;;;5041478;28;51109;-44
2022/11/19 13:27:57;;;;;;;;;19.50;17.75;;;;;;;;5041295;28;51025;-43
2022/11/19 13:30:43;;;;;;;;;24.50;18.50;;;;;;;;5041689;28;51177;-42
2022/11/19 13:33:33;;;;;;;;;21.25;18.50;;;;;;;;5040522;28;51258;-42
2022/11/19 13:36:40;;;;;;;;;19.50;17.75;;;;;;;;5039577;28;51504;-44
2022/11/19 13:39:45;;;;;;;;;17.00;16.00;;;;;;;;5033560;28;51275;-42
2022/11/19 13:45:33;;;;;;;;;16.50;14.25;;;;;;;;5038396;28;51410;-43
2022/11/19 13:48:23;;;;;;;;;17.50;16.25;;;;;;;;5040809;28;51010;-43
2022/11/19 13:51:15;;;;;;;;;16.00;14.00;;;;;;;;5040894;28;51364;-42
2022/11/19 13:54:01;;;;;;;;;19.00;15.75;;;;;;;;5034627;28;51044;-42
2022/11/19 13:56:46;;;;;;;;;17.50;15.75;;;;;;;;5040841;28;51152;-45
2022/11/19 13:59:34;;;;;;;;;19.00;17.50;;;;;;;;5040772;28;51119;-43
2022/11/19 14:02:37;;;;;;;;;17.25;17.00;;;;;;;;5040874;28;51407;-44
2022/11/19 14:05:42;;;;;;;;;20.25;17.00;;;;;;;;5040448;28;51087;-46
2022/11/19 14:08:45;;;;;;;;;20.50;18.00;;;;;;;;5041372;28;51149;-46
2022/11/19 14:11:48;;;;;;;;;24.25;19.25;;;;;;;;5037848;28;51587;-44
2022/11/19 14:27:29;;;;;;;;;21.75;17.00;;;;;;;;5039944;28;51059;-43
2022/11/19 14:30:16;;;;;;;;;20.50;15.75;;;;;;;;5039998;28;51624;-43
2022/11/19 14:33:00;;;;;;;;;21.25;15.50;;;;;;;;5024119;28;51243;-43
2022/11/19 14:35:45;;;;;;;;;21.25;17.75;;;;;;;;5033493;28;51004;-42
2022/11/19 14:38:33;;;;;;;;;16.25;15.25;;;;;;;;5040048;28;51485;-43
2022/11/19 14:41:22;;;;;;;;;21.00;17.25;;;;;;;;5035169;28;51078;-42
2022/11/19 14:44:11;;;;;;;;;18.00;15.75;;;;;;;;5032252;28;51524;-42
2022/11/19 14:46:56;;;;;;;;;19.00;15.50;;;;;;;;5023949;28;51155;-43
2022/11/19 14:49:45;;;;;;;;;15.00;15.00;;;;;;;;5039284;28;51117;-42
2022/11/19 14:52:36;;;;;;;;;16.25;14.00;;;;;;;;5039772;28;51152;-42
2022/11/19 14:55:25;;;;;;;;;17.50;14.50;;;;;;;;5039905;28;51156;-42
2022/11/19 14:58:22;;;;;;;;;16.75;13.50;;;;;;;;5036761;28;51099;-42
2022/11/19 15:01:07;;;;;;;;;24.00;21.00;;;;;;;;5040062;28;50960;-42
2022/11/19 15:03:54;;;;;;;;;20.75;17.75;;;;;;;;5039288;28;51354;-42
2022/11/19 15:06:38;;;;;;;;;22.00;19.50;;;;;;;;5035973;28;51249;-42
2022/11/19 15:09:41;;;;;;;;;30.00;21.00;;;;;;;;5039881;28;51515;-44
2022/11/19 15:12:32;;;;;;;;;19.50;14.25;;;;;;;;5038734;28;51348;-42
2022/11/19 15:15:19;;;;;;;;;19.75;19.00;;;;;;;;5038495;28;51531;-42
2022/11/19 15:19:17;;;;;;;;;20.50;19.50;;;;;;;;4312273;32;51130;-44
2022/11/19 15:22:21;;;;;;;;;21.50;21.50;;;;;;;;5077309;28;51046;-47
2022/11/19 15:25:28;;;;;;;;;22.25;15.50;;;;;;;;5077025;28;51472;-46
2022/11/19 15:28:19;;;;;;;;;18.75;17.00;;;;;;;;5077147;28;51113;-45
2022/11/19 15:31:10;;;;;;;;;15.25;12.75;;;;;;;;5010385;28;51664;-44
2022/11/19 15:34:14;;;;;;;;;34.00;28.75;;;;;;;;5030635;28;51090;-47
2022/11/19 15:36:59;;;;;;;;;29.00;23.25;;;;;;;;5076929;28;51126;-45
2022/11/19 15:39:46;;;;;;;;;23.50;21.50;;;;;;;;5075668;28;51529;-41
2022/11/19 15:42:33;;;;;;;;;37.00;29.75;;;;;;;;5075851;28;51706;-46
2022/11/19 15:45:19;;;;;;;;;41.50;33.00;;;;;;;;5003392;28;51145;-47
2022/11/19 15:48:06;;;;;;;;;34.00;30.25;;;;;;;;4993493;28;51084;-47
2022/11/19 15:50:50;;;;;;;;;29.50;29.50;;;;;;;;4992772;28;51197;-42
2022/11/19 15:53:35;;;;;;;;;38.50;32.00;;;;;;;;4992300;28;51098;-42
2022/11/19 15:56:19;;;;;;;;;30.25;26.00;;;;;;;;4992850;28;51541;-48
2022/11/19 15:59:06;;;;;;;;;28.50;27.50;;;;;;;;5001086;28;51160;-43
2022/11/19 16:01:58;;;;;;;;;31.50;26.25;;;;;;;;5076415;28;51078;-46
2022/11/19 16:04:42;;;;;;;;;29.50;25.00;;;;;;;;5075680;28;51150;-41
2022/11/19 16:07:27;;;;;;;;;42.50;35.50;;;;;;;;5075763;28;51692;-45
2022/11/19 16:10:14;;;;;;;;;35.25;31.50;;;;;;;;5103655;27;51013;-43
2022/11/19 16:19:06;;;;;;;;;33.00;24.75;;;;;;;;5056077;28;51105;-43
2022/11/19 16:21:53;;;;;;;;;35.25;30.00;;;;;;;;5075875;28;51117;-43
2022/11/19 16:27:43;;;;;;;;;30.00;27.00;;;;;;;;5075523;28;51039;-44
2022/11/19 16:30:31;;;;;;;;;35.75;22.25;;;;;;;;5061364;28;51501;-46
2022/11/19 16:33:17;;;;;;;;;31.00;22.75;;;;;;;;5061445;28;51583;-42
2022/11/19 16:36:15;;;;;;;;;39.00;30.50;;;;;;;;5061736;28;51090;-45
2022/11/19 16:39:00;;;;;;;;;34.00;27.00;;;;;;;;4984847;28;51077;-44
2022/11/19 16:45:09;;;;;;;;;25.25;20.50;;;;;;;;5018986;28;51502;-42
2022/11/19 16:47:58;;;;;;;;;30.75;27.25;;;;;;;;5061685;28;51594;-45
2022/11/19 16:50:42;;;;;;;;;36.50;28.25;;;;;;;;5061602;28;51038;-46
2022/11/19 16:53:45;;;;;;;;;44.25;34.50;;;;;;;;5061720;28;51081;-43
2022/11/19 16:56:33;;;;;;;;;38.00;32.25;;;;;;;;5061276;28;51086;-44
2022/11/19 16:59:19;;;;;;;;;38.75;30.25;;;;;;;;5061623;28;51284;-45
2022/11/19 17:02:03;;;;;;;;;35.00;30.00;;;;;;;;5061675;28;51076;-44
2022/11/19 17:04:48;;;;;;;;;31.25;27.00;;;;;;;;5061932;28;51126;-42